sensor_id;sensor_type;location;lat;lon;timestamp;temperature;humidity
14779;DHT22;7481;53.750;10.570;2022-11-15T00:02:57;5.80;99.90
14779;DHT22;7481;53.750;10.570;2022-11-15T00:05:46;5.70;99.90
14779;DHT22;7481;53.750;10.570;2022-11-15T00:08:35;5.80;99.90
14779;DHT22;7481;53.750;10.570;2022-11-15T00:11:22;5.70;99.90
14779;DHT22;7481;53.750;10.570;2022-11-15T00:19:47;5.90;99.90
14779;DHT22;7481;53.750;10.570;2022-11-15T00:22:34;6.00;99.90
14779;DHT22;7481;53.750;10.570;2022-11-15T00:31:08;6.00;99.90
14779;DHT22;7481;53.750;10.570;2022-11-15T00:36:42;5.80;99.90
14779;DHT22;7481;53.750;10.570;2022-11-15T00:39:29;5.60;99.90
14779;DHT22;7481;53.750;10.570;2022-11-15T00:42:16;5.70;99.90
14779;DHT22;7481;53.750;10.570;2022-11-15T00:50:38;6.10;99.90
14779;DHT22;7481;53.750;10.570;2022-11-15T00:53:26;5.90;99.90
14779;DHT22;7481;53.750;10.570;2022-11-15T00:56:13;5.30;99.90
14779;DHT22;7481;53.750;10.570;2022-11-15T00:59:00;5.60;99.90
14779;DHT22;7481;53.750;10.570;2022-11-15T01:01:47;5.70;99.90
14779;DHT22;7481;53.750;10.570;2022-11-15T01:04:34;5.70;99.90
14779;DHT22;7481;53.750;10.570;2022-11-15T01:07:21;5.30;99.90
14779;DHT22;7481;53.750;10.570;2022-11-15T01:18:31;5.80;99.90
14779;DHT22;7481;53.750;10.570;2022-11-15T01:21:19;5.90;99.90
14779;DHT22;7481;53.750;10.570;2022-11-15T01:24:07;5.80;99.90
14779;DHT22;7481;53.750;10.570;2022-11-15T01:26:54;5.80;99.90
14779;DHT22;7481;53.750;10.570;2022-11-15T01:29:41;5.80;99.90
14779;DHT22;7481;53.750;10.570;2022-11-15T01:32:28;5.80;99.90
14779;DHT22;7481;53.750;10.570;2022-11-15T01:35:15;5.80;99.90
14779;DHT22;7481;53.750;10.570;2022-11-15T01:40:49;5.70;99.90
14779;DHT22;7481;53.750;10.570;2022-11-15T01:43:36;5.70;99.90
14779;DHT22;7481;53.750;10.570;2022-11-15T16:04:40;9.00;99.90
14779;DHT22;7481;53.750;10.570;2022-11-15T16:24:18;9.30;99.90
14779;DHT22;7481;53.750;10.570;2022-11-15T16:29:58;9.40;99.90
14779;DHT22;7481;53.750;10.570;2022-11-15T16:32:45;9.40;99.90
14779;DHT22;7481;53.750;10.570;2022-11-15T16:38:21;9.40;99.90
14779;DHT22;7481;53.750;10.570;2022-11-15T16:49:37;9.50;99.90
14779;DHT22;7481;53.750;10.570;2022-11-15T16:52:26;9.50;99.90
14779;DHT22;7481;53.750;10.570;2022-11-15T17:09:19;9.70;99.90
14779;DHT22;7481;53.750;10.570;2022-11-15T17:12:07;9.80;99.90
14779;DHT22;7481;53.750;10.570;2022-11-15T17:14:54;9.80;99.90
14779;DHT22;7481;53.750;10.570;2022-11-15T17:17:41;9.90;99.90
14779;DHT22;7481;53.750;10.570;2022-11-15T17:31:59;10.20;99.90
14779;DHT22;7481;53.750;10.570;2022-11-15T20:01:11;10.20;99.90
14779;DHT22;7481;53.750;10.570;2022-11-15T20:03:59;10.20;99.90
14779;DHT22;7481;53.750;10.570;2022-11-15T20:06:46;10.10;99.90
14779;DHT22;7481;53.750;10.570;2022-11-15T20:09:33;10.00;99.90
14779;DHT22;7481;53.750;10.570;2022-11-15T20:12:20;10.00;99.90
14779;DHT22;7481;53.750;10.570;2022-11-15T20:15:07;10.00;99.90
14779;DHT22;7481;53.750;10.570;2022-11-15T20:20:42;9.90;99.90
14779;DHT22;7481;53.750;10.570;2022-11-15T20:23:31;10.10;99.90
14779;DHT22;7481;53.750;10.570;2022-11-15T20:26:19;9.80;99.90
14779;DHT22;7481;53.750;10.570;2022-11-15T20:29:06;9.80;99.90
14779;DHT22;7481;53.750;10.570;2022-11-15T20:31:55;9.80;99.90
14779;DHT22;7481;53.750;10.570;2022-11-15T20:34:42;9.80;99.90
14779;DHT22;7481;53.750;10.570;2022-11-15T20:37:29;9.80;99.90
14779;DHT22;7481;53.750;10.570;2022-11-15T20:40:16;9.80;99.90
14779;DHT22;7481;53.750;10.570;2022-11-15T20:43:04;9.70;99.90
14779;DHT22;7481;53.750;10.570;2022-11-15T20:45:51;9.70;99.90
14779;DHT22;7481;53.750;10.570;2022-11-15T20:48:38;9.70;99.90
14779;DHT22;7481;53.750;10.570;2022-11-15T20:51:25;9.60;99.90
14779;DHT22;7481;53.750;10.570;2022-11-15T20:54:12;9.60;99.90
14779;DHT22;7481;53.750;10.570;2022-11-15T20:56:59;9.60;99.90
14779;DHT22;7481;53.750;10.570;2022-11-15T20:59:46;9.50;99.90
14779;DHT22;7481;53.750;10.570;2022-11-15T21:02:33;9.50;99.90
14779;DHT22;7481;53.750;10.570;2022-11-15T21:05:20;9.50;99.90
14779;DHT22;7481;53.750;10.570;2022-11-15T21:10:56;9.40;99.90
14779;DHT22;7481;53.750;10.570;2022-11-15T21:19:45;9.40;99.90
14779;DHT22;7481;53.750;10.570;2022-11-15T21:22:32;9.30;99.90
14779;DHT22;7481;53.750;10.570;2022-11-15T21:25:19;9.30;99.90
14779;DHT22;7481;53.750;10.570;2022-11-15T21:28:06;9.20;99.90
14779;DHT22;7481;53.750;10.570;2022-11-15T21:30:58;9.20;99.90
14779;DHT22;7481;53.750;10.570;2022-11-15T21:33:45;9.20;99.90
14779;DHT22;7481;53.750;10.570;2022-11-15T21:36:32;9.20;99.90
14779;DHT22;7481;53.750;10.570;2022-11-15T21:39:19;9.10;99.90
14779;DHT22;7481;53.750;10.570;2022-11-15T21:42:06;9.00;99.90
14779;DHT22;7481;53.750;10.570;2022-11-15T21:44:53;9.00;99.90
14779;DHT22;7481;53.750;10.570;2022-11-15T21:47:40;9.70;99.90
14779;DHT22;7481;53.750;10.570;2022-11-15T22:15:58;9.00;99.90
14779;DHT22;7481;53.750;10.570;2022-11-15T22:18:45;8.90;99.90
14779;DHT22;7481;53.750;10.570;2022-11-15T22:21:32;8.90;99.90
14779;DHT22;7481;53.750;10.570;2022-11-15T22:24:19;8.80;99.90
14779;DHT22;7481;53.750;10.570;2022-11-15T22:32:42;8.80;99.90
14779;DHT22;7481;53.750;10.570;2022-11-15T22:52:15;8.60;99.90
14779;DHT22;7481;53.750;10.570;2022-11-15T23:03:25;8.50;99.90
14779;DHT22;7481;53.750;10.570;2022-11-15T23:06:13;8.40;99.90
14779;DHT22;7481;53.750;10.570;2022-11-15T23:09:00;8.40;99.90
14779;DHT22;7481;53.750;10.570;2022-11-15T23:14:53;8.30;99.90
14779;DHT22;7481;53.750;10.570;2022-11-15T23:17:40;8.30;99.90
14779;DHT22;7481;53.750;10.570;2022-11-15T23:20:27;8.30;99.90
14779;DHT22;7481;53.750;10.570;2022-11-15T23:23:29;8.20;99.90
14779;DHT22;7481;53.750;10.570;2022-11-15T23:29:04;8.10;99.90
14779;DHT22;7481;53.750;10.570;2022-11-15T23:31:53;8.10;99.90
14779;DHT22;7481;53.750;10.570;2022-11-15T23:34:59;8.10;99.90
14779;DHT22;7481;53.750;10.570;2022-11-15T23:37:46;7.80;99.90
14779;DHT22;7481;53.750;10.570;2022-11-15T23:43:22;7.90;99.90
14779;DHT22;7481;53.750;10.570;2022-11-15T23:46:09;8.00;99.90
14779;DHT22;7481;53.750;10.570;2022-11-15T23:48:56;8.00;99.90
14779;DHT22;7481;53.750;10.570;2022-11-15T23:51:44;8.00;99.90
14779;DHT22;7481;53.750;10.570;2022-11-15T23:54:31;7.90;99.90
14779;DHT22;7481;53.750;10.570;2022-11-15T23:57:18;7.90;99.90
